createdAt,value
2019-04-10T00:03:32.245Z,32
2019-04-10T00:08:26.591Z,36
2019-04-10T00:13:29.112Z,35
2019-04-10T00:18:31.851Z,32
2019-04-10T00:23:33.981Z,32
2019-04-10T00:28:36.800Z,34
2019-04-10T00:33:38.942Z,35
2019-04-10T00:38:42.074Z,35
2019-04-10T00:43:43.838Z,37
2019-04-10T00:48:46.625Z,34
2019-04-10T00:53:49.640Z,33
2019-04-10T00:58:51.259Z,31
2019-04-10T01:03:53.947Z,30
2019-04-10T01:08:57.170Z,33
2019-04-10T01:13:59.098Z,35
2019-04-10T01:19:01.714Z,31
2019-04-10T01:24:03.681Z,32
2019-04-10T01:29:06.097Z,34
2019-04-10T01:34:09.422Z,33
2019-04-10T01:39:11.269Z,34
2019-04-10T01:44:13.376Z,38
2019-04-10T01:49:15.909Z,34
2019-04-10T01:54:19.281Z,35
2019-04-10T01:59:21.482Z,33
2019-04-10T02:04:23.208Z,34
2019-04-10T02:09:25.714Z,35
2019-04-10T02:14:28.439Z,35
2019-04-10T02:19:30.508Z,37
2019-04-10T02:24:33.361Z,39
2019-04-10T02:29:35.715Z,37
2019-04-10T02:34:39.270Z,35
2019-04-10T02:39:46.162Z,35
2019-04-10T02:44:43.977Z,37
2019-04-10T02:49:46.853Z,39
2019-04-10T02:54:48.990Z,39
2019-04-10T02:59:51.125Z,38
2019-04-10T03:04:53.256Z,35
2019-04-10T03:10:05.610Z,38
2019-04-10T03:14:59.103Z,36
2019-04-10T03:20:00.198Z,36
2019-04-10T03:25:02.627Z,36
2019-04-10T03:30:05.746Z,38
2019-04-10T03:35:08.154Z,41
2019-04-10T03:40:11.119Z,39
2019-04-10T03:45:12.270Z,39
2019-04-10T03:50:14.731Z,37
2019-04-10T03:55:17.194Z,37
2019-04-10T04:00:20.932Z,34
2019-04-10T04:05:22.444Z,37
2019-04-10T04:10:24.888Z,38
2019-04-10T04:15:27.909Z,36
2019-04-10T04:20:29.493Z,35
2019-04-10T04:25:32.466Z,35
2019-04-10T04:30:34.499Z,35
2019-04-10T04:35:36.934Z,34
2019-04-10T04:40:39.352Z,37
2019-04-10T04:45:42.189Z,37
2019-04-10T04:50:44.269Z,36
2019-04-10T04:55:47.010Z,38
2019-04-10T05:00:50.672Z,41
2019-04-10T05:05:51.968Z,40
2019-04-10T05:10:54.321Z,39
2019-04-10T05:15:57.520Z,38
2019-04-10T05:20:59.062Z,40
2019-04-10T05:26:02.433Z,37
2019-04-10T05:31:03.993Z,32
2019-04-10T05:36:06.980Z,37
2019-04-10T05:41:09.189Z,37
2019-04-10T05:46:12.351Z,35
2019-04-10T05:51:14.951Z,41
2019-04-10T05:56:16.361Z,39
2019-04-10T06:01:29.845Z,38
2019-04-10T06:06:22.191Z,40
2019-04-10T06:11:24.650Z,39
2019-04-10T06:16:26.219Z,39
2019-04-10T06:21:29.792Z,41
2019-04-10T06:26:32.469Z,40
2019-04-10T06:31:33.595Z,43
2019-04-10T06:36:36.074Z,43
2019-04-10T06:41:39.071Z,44
2019-04-10T06:46:41.785Z,43
2019-04-10T06:51:43.448Z,37
2019-04-10T06:56:48.181Z,39
2019-04-10T07:01:52.760Z,38
2019-04-10T07:06:58.523Z,39
2019-04-10T07:11:58.208Z,39
2019-04-10T07:17:00.504Z,39
2019-04-10T07:21:59.996Z,38
2019-04-10T07:27:03.342Z,36
2019-04-10T07:32:07.651Z,37
2019-04-10T07:37:05.801Z,38
2019-04-10T07:42:08.331Z,36
2019-04-10T07:47:11.099Z,37
2019-04-10T07:52:12.905Z,33
2019-04-10T07:57:16.029Z,32
2019-04-10T08:02:18.729Z,34
2019-04-10T08:07:29.349Z,32
2019-04-10T08:12:23.323Z,33
2019-04-10T08:17:25.243Z,31
2019-04-10T08:22:28.664Z,31
2019-04-10T08:27:30.127Z,31
2019-04-10T08:32:40.371Z,28
2019-04-10T08:37:35.140Z,29
2019-04-10T08:42:37.841Z,26
2019-04-10T08:47:40.014Z,24
2019-04-10T08:52:42.710Z,22
2019-04-10T08:57:45.865Z,22
2019-04-10T09:02:48.501Z,24
2019-04-10T09:07:50.638Z,22
2019-04-10T09:12:54.483Z,22
2019-04-10T09:17:55.673Z,21
2019-04-10T09:23:15.334Z,24
2019-04-10T09:28:00.154Z,23
2019-04-10T09:33:14.576Z,21
2019-04-10T09:38:04.572Z,21
2019-04-10T09:43:07.351Z,22
2019-04-10T09:48:10.604Z,20
2019-04-10T09:53:12.794Z,19
2019-04-10T09:58:14.344Z,18
2019-04-10T10:03:17.339Z,18
2019-04-10T10:13:23.523Z,19
2019-04-10T10:18:24.219Z,19
2019-04-10T10:23:27.593Z,19
2019-04-10T10:28:29.235Z,18
2019-04-10T10:38:34.847Z,19
2019-04-10T10:43:36.590Z,17
2019-04-10T10:48:39.904Z,17
2019-04-10T10:53:41.410Z,17
2019-04-10T10:58:43.968Z,16
2019-04-10T11:03:46.730Z,18
2019-04-10T11:08:48.772Z,16
2019-04-10T11:13:51.278Z,15
2019-04-10T11:18:55.028Z,15
2019-04-10T11:23:56.166Z,16
2019-04-10T11:28:58.604Z,15
2019-04-10T11:34:02.763Z,14
2019-04-10T11:39:11.800Z,15
2019-04-10T11:44:08.074Z,15
2019-04-10T11:54:14.276Z,14
2019-04-10T11:59:14.419Z,15
2019-04-10T12:04:17.198Z,14
2019-04-10T12:09:55.139Z,15
2019-04-10T12:14:21.550Z,14
2019-04-10T12:19:25.007Z,13
2019-04-10T12:24:26.063Z,14
2019-04-10T12:29:28.936Z,14
2019-04-10T12:34:30.574Z,13
2019-04-10T12:39:33.204Z,13
2019-04-10T12:44:35.959Z,14
2019-04-10T12:49:37.961Z,14
2019-04-10T12:54:40.586Z,14
2019-04-10T12:59:43.632Z,13
2019-04-10T13:04:45.327Z,12
2019-04-10T13:09:48.487Z,13
2019-04-10T13:24:55.366Z,12
2019-04-10T13:29:57.620Z,11
2019-04-10T13:35:00.098Z,12
2019-04-10T13:40:03.496Z,12
2019-04-10T13:45:05.161Z,12
2019-04-10T13:50:08.552Z,12
2019-04-10T13:55:10.290Z,11
2019-04-10T14:00:13.364Z,12
2019-04-10T14:05:15.623Z,12
2019-04-10T14:10:17.290Z,11
2019-04-10T14:15:20.187Z,12
2019-04-10T14:20:23.529Z,11
2019-04-10T14:25:25.500Z,13
2019-04-10T14:30:27.198Z,11
2019-04-10T14:35:29.575Z,12
2019-04-10T14:40:32.491Z,12
2019-04-10T14:45:35.409Z,13
2019-04-10T14:55:39.777Z,12
2019-04-10T15:00:41.922Z,13
2019-04-10T15:05:49.759Z,11
2019-04-10T15:10:46.796Z,13
2019-04-10T15:15:50.281Z,12
2019-04-10T15:20:51.762Z,12
2019-04-10T15:25:54.203Z,12
2019-04-10T15:30:57.181Z,12
2019-04-10T15:41:01.573Z,11
2019-04-10T15:46:04.267Z,17
2019-04-10T15:51:07.647Z,13
2019-04-10T15:56:09.636Z,16
2019-04-10T16:01:11.819Z,12
2019-04-10T16:06:13.964Z,11
2019-04-10T16:11:17.378Z,12
2019-04-10T16:16:19.078Z,10
2019-04-10T16:21:21.417Z,11
2019-04-10T16:26:23.835Z,10
2019-04-10T16:31:26.137Z,9
2019-04-10T16:36:29.663Z,10
2019-04-10T16:41:31.197Z,9
2019-04-10T16:46:33.471Z,8
2019-04-10T16:51:36.550Z,9
2019-04-10T16:56:38.731Z,8
2019-04-10T17:01:41.007Z,8
2019-04-10T17:11:45.817Z,8
2019-04-10T17:16:48.235Z,8
2019-04-10T17:21:50.681Z,9
2019-04-10T17:26:53.153Z,11
2019-04-10T17:31:55.600Z,10
2019-04-10T17:36:59.170Z,10
2019-04-10T17:47:04.598Z,11
2019-04-10T17:52:06.284Z,10
2019-04-10T17:57:08.633Z,12
2019-04-10T18:02:11.577Z,13
2019-04-10T18:07:12.909Z,14
2019-04-10T18:12:16.203Z,12
2019-04-10T18:17:18.553Z,13
2019-04-10T18:22:20.619Z,11
2019-04-10T18:32:25.474Z,17
2019-04-10T18:37:28.499Z,22
2019-04-10T18:42:30.852Z,22
2019-04-10T18:47:34.922Z,19
2019-04-10T18:52:35.112Z,14
2019-04-10T18:57:37.478Z,16
2019-04-10T19:02:41.077Z,15
2019-04-10T19:12:45.324Z,17
2019-04-10T19:17:47.378Z,16
2019-04-10T19:22:50.642Z,14
2019-04-10T19:27:52.692Z,14
2019-04-10T19:32:54.652Z,14
2019-04-10T19:37:57.087Z,12
2019-04-10T19:42:59.937Z,14
2019-04-10T19:48:03.153Z,13
2019-04-10T19:53:04.773Z,14
2019-04-10T19:58:07.997Z,13
2019-04-10T20:03:09.434Z,13
2019-04-10T20:08:13.013Z,14
2019-04-10T20:13:14.516Z,14
2019-04-10T20:18:16.959Z,13
2019-04-10T20:23:19.478Z,12
2019-04-10T20:28:22.752Z,14
2019-04-10T20:33:24.962Z,16
2019-04-10T20:38:27.321Z,18
2019-04-10T20:43:30.603Z,16
2019-04-10T20:53:34.067Z,15
2019-04-10T20:58:36.601Z,16
2019-04-10T21:03:40.187Z,15
2019-04-10T21:08:42.436Z,16
2019-04-10T21:13:44.626Z,15
2019-04-10T21:18:46.342Z,14
2019-04-10T21:23:49.020Z,16
2019-04-10T21:28:51.610Z,13
2019-04-10T21:33:54.695Z,15
2019-04-10T21:38:56.666Z,15
2019-04-10T21:43:58.638Z,16
2019-04-10T21:49:01.561Z,14
2019-04-10T21:54:04.332Z,17
2019-04-10T21:59:06.065Z,18
2019-04-10T22:04:08.522Z,15
2019-04-10T22:09:10.992Z,15
2019-04-10T22:14:13.377Z,15
2019-04-10T22:19:16.710Z,14
2019-04-10T22:24:18.335Z,13
2019-04-10T22:29:21.748Z,14
2019-04-10T22:34:23.394Z,14
2019-04-10T22:39:25.672Z,14
2019-04-10T22:44:36.483Z,12
2019-04-10T22:49:30.812Z,13
2019-04-10T22:54:33.061Z,13
2019-04-10T22:59:35.495Z,14
2019-04-10T23:04:38.913Z,13
2019-04-10T23:09:40.609Z,12
2019-04-10T23:14:42.868Z,14
2019-04-10T23:19:45.395Z,13
2019-04-10T23:24:47.808Z,11
2019-04-10T23:29:50.627Z,13
2019-04-10T23:34:53.053Z,12
2019-04-10T23:39:55.178Z,13
2019-04-10T23:44:57.658Z,14
2019-04-10T23:50:00.112Z,13
2019-04-10T23:55:03.861Z,14
